Time;durP1;ratioP1;P1;durP2;ratioP2;P2;SDS_P1;SDS_P2;PMS_P1;PMS_P2;Temp;Humidity;BMP_temperature;BMP_pressure;BME280_temperature;BME280_humidity;BME280_pressure;Samples;Min_cycle;Max_cycle;Signal;HPM_P1;HPM_P2
2022/06/15 00:01:05;;;;;;;2.60;1.20;;;;;;;;;;5043603;28;20042;-87
2022/06/15 00:03:31;;;;;;;2.15;0.95;;;;;;;;;;5076697;28;20035;-87
2022/06/15 00:06:11;;;;;;;3.22;1.00;;;;;;;;;;5076403;28;20051;-87
2022/06/15 00:08:36;;;;;;;4.50;1.20;;;;;;;;;;5059506;28;20032;-88
2022/06/15 00:11:07;;;;;;;3.05;0.88;;;;;;;;;;5056003;28;20394;-87
2022/06/15 00:13:34;;;;;;;2.60;1.00;;;;;;;;;;5006731;28;20151;-87
2022/06/15 00:16:03;;;;;;;3.88;1.02;;;;;;;;;;5023419;28;20032;-87
2022/06/15 00:18:30;;;;;;;3.38;0.98;;;;;;;;;;5056473;28;20040;-87
2022/06/15 00:20:57;;;;;;;2.92;1.00;;;;;;;;;;5014488;28;20044;-87
2022/06/15 00:23:26;;;;;;;1.88;0.95;;;;;;;;;;5019715;28;20041;-86
2022/06/15 00:25:54;;;;;;;2.88;0.90;;;;;;;;;;5011726;28;20552;-87
2022/06/15 00:28:24;;;;;;;5.93;1.20;;;;;;;;;;5019285;28;20041;-87
2022/06/15 00:30:50;;;;;;;3.92;1.35;;;;;;;;;;5052806;28;20032;-87
2022/06/15 00:33:19;;;;;;;2.20;1.17;;;;;;;;;;5019614;28;20037;-86
2022/06/15 00:36:06;;;;;;;3.65;1.10;;;;;;;;;;5035860;28;20028;-87
2022/06/15 00:38:36;;;;;;;2.08;0.70;;;;;;;;;;5019482;28;20041;-87
2022/06/15 00:41:10;;;;;;;2.88;1.00;;;;;;;;;;5035901;28;20029;-86
2022/06/15 00:43:50;;;;;;;3.00;0.90;;;;;;;;;;5035708;28;20036;-86
2022/06/15 00:46:41;;;;;;;2.95;0.90;;;;;;;;;;5036039;28;20043;-86
2022/06/15 00:49:26;;;;;;;1.98;0.90;;;;;;;;;;5026226;28;20049;-86
2022/06/15 00:51:56;;;;;;;2.63;1.50;;;;;;;;;;5010845;28;20116;-86
2022/06/15 00:54:23;;;;;;;3.70;1.20;;;;;;;;;;5002371;28;20037;-86
2022/06/15 00:56:49;;;;;;;3.25;0.93;;;;;;;;;;5035252;28;20033;-86
2022/06/15 00:59:21;;;;;;;2.75;1.02;;;;;;;;;;5018838;28;20131;-86
2022/06/15 01:01:48;;;;;;;2.70;0.95;;;;;;;;;;5035466;28;20029;-86
2022/06/15 01:04:14;;;;;;;3.42;1.20;;;;;;;;;;5035423;28;20045;-86
2022/06/15 01:06:49;;;;;;;1.92;0.98;;;;;;;;;;5035063;28;20047;-86
2022/06/15 01:09:23;;;;;;;2.78;1.05;;;;;;;;;;5018528;28;20047;-86
2022/06/15 01:12:10;;;;;;;1.77;0.90;;;;;;;;;;5018642;28;20127;-86
2022/06/15 01:14:36;;;;;;;3.25;1.05;;;;;;;;;;5034884;28;20078;-86
2022/06/15 01:17:13;;;;;;;2.60;1.33;;;;;;;;;;5035146;28;20115;-86
2022/06/15 01:20:05;;;;;;;3.42;1.17;;;;;;;;;;5019776;28;20037;-87
2022/06/15 01:22:53;;;;;;;2.93;0.90;;;;;;;;;;5022953;28;20128;-85
2022/06/15 01:25:28;;;;;;;4.70;1.25;;;;;;;;;;5058188;28;20028;-86
2022/06/15 01:28:28;;;;;;;5.10;1.65;;;;;;;;;;5058186;28;20035;-87
2022/06/15 01:31:07;;;;;;;2.17;1.10;;;;;;;;;;5058514;28;20024;-87
2022/06/15 01:33:53;;;;;;;4.55;1.55;;;;;;;;;;5058177;28;20035;-85
2022/06/15 01:36:26;;;;;;;2.88;1.70;;;;;;;;;;5091324;28;20044;-85
2022/06/15 01:38:54;;;;;;;3.08;1.15;;;;;;;;;;5073691;28;20067;-86
2022/06/15 01:41:56;;;;;;;2.05;1.13;;;;;;;;;;5057956;28;20032;-87
2022/06/15 01:44:31;;;;;;;3.50;1.05;;;;;;;;;;5016792;28;20040;-86
2022/06/15 01:46:56;;;;;;;3.03;1.40;;;;;;;;;;5040968;28;20044;-85
2022/06/15 01:50:04;;;;;;;3.85;1.15;;;;;;;;;;5041386;28;20032;-87
2022/06/15 01:52:32;;;;;;;3.20;1.70;;;;;;;;;;5052202;28;20039;-87
2022/06/15 01:55:06;;;;;;;2.22;1.23;;;;;;;;;;5057832;28;20036;-84
2022/06/15 01:57:34;;;;;;;5.22;1.55;;;;;;;;;;5056910;28;20032;-85
2022/06/15 02:00:03;;;;;;;4.05;1.50;;;;;;;;;;5030063;28;20032;-85
2022/06/15 02:02:38;;;;;;;5.20;1.65;;;;;;;;;;5017713;28;20051;-88
2022/06/15 02:05:24;;;;;;;4.75;1.40;;;;;;;;;;5050671;28;20033;-85
2022/06/15 02:08:03;;;;;;;5.20;2.03;;;;;;;;;;5034131;28;20033;-86
2022/06/15 02:10:33;;;;;;;3.40;1.83;;;;;;;;;;5050490;28;20060;-87
2022/06/15 02:13:06;;;;;;;4.07;1.60;;;;;;;;;;5050955;28;20138;-87
2022/06/15 02:15:33;;;;;;;8.35;2.90;;;;;;;;;;5050253;28;20021;-87
2022/06/15 02:18:02;;;;;;;4.13;1.90;;;;;;;;;;5034541;28;20033;-87
2022/06/15 02:20:33;;;;;;;3.80;2.45;;;;;;;;;;5037529;28;20029;-87
2022/06/15 02:23:00;;;;;;;4.22;1.80;;;;;;;;;;5021620;28;20109;-87
2022/06/15 02:25:30;;;;;;;4.60;2.13;;;;;;;;;;5021005;28;20032;-87
2022/06/15 02:27:55;;;;;;;4.78;2.00;;;;;;;;;;5021005;28;20106;-87
2022/06/15 02:30:25;;;;;;;4.15;2.30;;;;;;;;;;5004607;28;20487;-86
2022/06/15 02:32:51;;;;;;;3.70;2.00;;;;;;;;;;5021676;28;20024;-87
2022/06/15 02:35:17;;;;;;;3.10;2.10;;;;;;;;;;5004446;28;20078;-86
2022/06/15 02:37:45;;;;;;;3.72;1.65;;;;;;;;;;5021490;28;20041;-86
2022/06/15 02:40:13;;;;;;;3.67;2.38;;;;;;;;;;5005029;28;20033;-86
2022/06/15 02:42:44;;;;;;;4.05;2.42;;;;;;;;;;5021628;28;20060;-87
2022/06/15 02:45:17;;;;;;;6.22;2.28;;;;;;;;;;5022056;28;20040;-86
2022/06/15 02:47:43;;;;;;;;;;;;;;;;;;5022154;28;20028;-87
2022/06/15 02:50:10;;;;;;;7.68;2.42;;;;;;;;;;5054920;28;19923;-87
2022/06/15 02:52:41;;;;;;;5.18;2.70;;;;;;;;;;5008459;28;20051;-87
2022/06/15 02:55:07;;;;;;;5.47;2.38;;;;;;;;;;5021506;28;20236;-87
2022/06/15 02:57:45;;;;;;;4.80;2.38;;;;;;;;;;5004785;28;20060;-86
2022/06/15 03:00:12;;;;;;;3.70;2.05;;;;;;;;;;5020715;28;20056;-87
2022/06/15 03:02:38;;;;;;;4.20;1.90;;;;;;;;;;5005066;28;20028;-85
2022/06/15 03:05:04;;;;;;;5.53;2.03;;;;;;;;;;5020893;28;20021;-85
2022/06/15 03:07:30;;;;;;;5.40;2.45;;;;;;;;;;5036930;28;20067;-85
2022/06/15 03:09:56;;;;;;;4.63;2.00;;;;;;;;;;5020708;28;20171;-86
2022/06/15 03:12:25;;;;;;;4.47;2.17;;;;;;;;;;5004469;28;20040;-85
2022/06/15 03:14:51;;;;;;;4.15;2.33;;;;;;;;;;5020630;28;20036;-85
2022/06/15 03:17:18;;;;;;;3.80;2.28;;;;;;;;;;5020650;28;20058;-86
2022/06/15 03:19:45;;;;;;;4.10;2.17;;;;;;;;;;5022776;28;20037;-88
2022/06/15 03:22:12;;;;;;;3.08;1.95;;;;;;;;;;5040535;28;20051;-85
2022/06/15 03:24:38;;;;;;;4.03;2.15;;;;;;;;;;5040527;28;20037;-85
2022/06/15 03:27:04;;;;;;;4.28;2.08;;;;;;;;;;5006971;28;20044;-85
2022/06/15 03:29:31;;;;;;;5.07;2.25;;;;;;;;;;5023411;28;20190;-84
2022/06/15 03:31:57;;;;;;;4.47;2.05;;;;;;;;;;5023470;28;20486;-85
2022/06/15 03:34:23;;;;;;;3.97;2.10;;;;;;;;;;5039753;28;20082;-85
2022/06/15 03:36:50;;;;;;;3.55;2.13;;;;;;;;;;5023609;28;20047;-86
2022/06/15 03:39:17;;;;;;;5.10;2.08;;;;;;;;;;5023441;28;20517;-86
2022/06/15 03:41:43;;;;;;;3.53;2.00;;;;;;;;;;5023804;28;20033;-87
2022/06/15 03:44:14;;;;;;;3.53;2.33;;;;;;;;;;5040177;28;20119;-89
2022/06/15 03:46:40;;;;;;;4.35;1.98;;;;;;;;;;5040945;28;20120;-88
2022/06/15 03:49:06;;;;;;;4.03;2.03;;;;;;;;;;5022985;28;20036;-84
2022/06/15 03:51:31;;;;;;;3.90;1.88;;;;;;;;;;5039425;28;20109;-84
2022/06/15 03:53:57;;;;;;;3.55;1.73;;;;;;;;;;5006638;28;20033;-84
2022/06/15 03:56:23;;;;;;;4.47;2.17;;;;;;;;;;5019559;28;20040;-85
2022/06/15 03:58:49;;;;;;;5.00;2.30;;;;;;;;;;5019333;28;20167;-84
2022/06/15 04:01:15;;;;;;;5.00;2.45;;;;;;;;;;5003316;28;20033;-85
2022/06/15 04:03:40;;;;;;;4.05;1.80;;;;;;;;;;5003031;28;20171;-85
2022/06/15 04:06:12;;;;;;;3.58;2.00;;;;;;;;;;5036305;28;20461;-87
2022/06/15 04:08:38;;;;;;;6.07;2.10;;;;;;;;;;5020269;28;20068;-88
2022/06/15 04:11:58;;;;;;;3.83;1.88;;;;;;;;;;5020193;28;20114;-84
2022/06/15 04:14:01;;;;;;;3.60;1.98;;;;;;;;;;5008699;28;20051;-86
2022/06/15 04:16:28;;;;;;;4.40;2.10;;;;;;;;;;5019258;28;20411;-86
2022/06/15 04:18:53;;;;;;;5.65;2.67;;;;;;;;;;5019806;28;20037;-85
2022/06/15 04:21:19;;;;;;;4.93;1.73;;;;;;;;;;5034975;28;20040;-85
2022/06/15 04:23:45;;;;;;;5.20;2.08;;;;;;;;;;5051210;28;20487;-85
2022/06/15 04:26:14;;;;;;;3.30;1.48;;;;;;;;;;5042354;28;20032;-85
2022/06/15 04:28:40;;;;;;;4.72;1.90;;;;;;;;;;5042646;28;20043;-85
2022/06/15 04:31:07;;;;;;;4.60;1.70;;;;;;;;;;5042655;28;20035;-85
2022/06/15 04:33:32;;;;;;;5.57;1.55;;;;;;;;;;5076161;28;20078;-87
2022/06/15 04:35:58;;;;;;;3.80;1.70;;;;;;;;;;5059547;28;20059;-87
2022/06/15 04:38:24;;;;;;;3.63;2.00;;;;;;;;;;5042313;28;20132;-86
2022/06/15 04:40:50;;;;;;;3.30;1.63;;;;;;;;;;5041820;28;20119;-86
2022/06/15 04:43:16;;;;;;;4.95;2.00;;;;;;;;;;5075731;28;20477;-87
2022/06/15 04:45:43;;;;;;;4.43;1.70;;;;;;;;;;5042135;28;20031;-86
2022/06/15 04:48:09;;;;;;;4.10;2.15;;;;;;;;;;5042247;28;20040;-86
2022/06/15 04:50:36;;;;;;;3.97;1.40;;;;;;;;;;5042386;28;20028;-86
2022/06/15 04:53:02;;;;;;;4.47;1.92;;;;;;;;;;5042236;28;20047;-86
2022/06/15 04:55:28;;;;;;;3.50;1.88;;;;;;;;;;5058304;28;20032;-86
2022/06/15 04:57:58;;;;;;;3.42;1.83;;;;;;;;;;5058290;28;20409;-85
2022/06/15 05:00:24;;;;;;;4.30;1.70;;;;;;;;;;5058872;28;20165;-87
2022/06/15 05:02:50;;;;;;;7.40;2.15;;;;;;;;;;5058450;28;20040;-86
2022/06/15 05:05:15;;;;;;;4.03;2.00;;;;;;;;;;5041110;28;20114;-83
2022/06/15 05:07:41;;;;;;;4.32;1.58;;;;;;;;;;5041001;28;20131;-83
2022/06/15 05:10:09;;;;;;;5.32;1.73;;;;;;;;;;5041299;28;20589;-85
2022/06/15 05:12:34;;;;;;;4.00;1.60;;;;;;;;;;5041146;28;20032;-83
2022/06/15 05:15:00;;;;;;;7.00;2.00;;;;;;;;;;5020366;28;20111;-86
2022/06/15 05:17:26;;;;;;;8.75;1.92;;;;;;;;;;5018867;28;20457;-85
2022/06/15 05:19:53;;;;;;;8.63;2.92;;;;;;;;;;5005078;28;20028;-83
2022/06/15 05:22:20;;;;;;;13.00;2.22;;;;;;;;;;5037857;28;20056;-85
2022/06/15 05:24:46;;;;;;;6.43;2.05;;;;;;;;;;5021141;28;20036;-82
2022/06/15 05:27:12;;;;;;;7.50;2.20;;;;;;;;;;5037365;28;20040;-83
2022/06/15 05:29:38;;;;;;;8.68;2.42;;;;;;;;;;5037263;28;20033;-83
2022/06/15 05:32:05;;;;;;;7.72;2.13;;;;;;;;;;5053768;28;20127;-82
2022/06/15 05:34:30;;;;;;;7.85;2.42;;;;;;;;;;5037318;28;20035;-82
2022/06/15 05:36:56;;;;;;;6.47;2.33;;;;;;;;;;5037167;28;20036;-81
2022/06/15 05:39:21;;;;;;;9.70;3.10;;;;;;;;;;5036888;28;20082;-81
2022/06/15 05:41:49;;;;;;;4.55;1.88;;;;;;;;;;5020225;28;20033;-84
2022/06/15 05:46:42;;;;;;;7.15;2.90;;;;;;;;;;5021129;28;20032;-83
2022/06/15 05:49:08;;;;;;;10.10;3.33;;;;;;;;;;5020861;28;20028;-83
2022/06/15 05:51:35;;;;;;;7.13;2.53;;;;;;;;;;5037059;28;20124;-83
2022/06/15 05:54:02;;;;;;;7.38;2.92;;;;;;;;;;5020729;28;20037;-83
2022/06/15 05:56:28;;;;;;;6.65;2.40;;;;;;;;;;5013273;28;20048;-83
2022/06/15 05:58:54;;;;;;;7.78;3.17;;;;;;;;;;5033207;28;20033;-83
2022/06/15 06:01:23;;;;;;;5.65;2.63;;;;;;;;;;5003485;28;20036;-83
2022/06/15 06:03:49;;;;;;;6.38;2.30;;;;;;;;;;5003774;28;20032;-84
2022/06/15 06:06:14;;;;;;;6.32;1.80;;;;;;;;;;5033569;28;20033;-83
2022/06/15 06:08:40;;;;;;;4.50;2.53;;;;;;;;;;5015208;28;20101;-82
2022/06/15 06:11:06;;;;;;;5.72;2.20;;;;;;;;;;5023067;28;20044;-83
2022/06/15 06:13:32;;;;;;;5.85;2.30;;;;;;;;;;5023221;28;20028;-83
2022/06/15 06:15:59;;;;;;;7.00;2.67;;;;;;;;;;5025128;28;20036;-82
2022/06/15 06:18:25;;;;;;;4.57;2.35;;;;;;;;;;5019421;28;20028;-84
2022/06/15 06:20:51;;;;;;;5.05;1.80;;;;;;;;;;5036031;28;20103;-84
2022/06/15 06:23:17;;;;;;;9.70;2.45;;;;;;;;;;5034727;28;20047;-82
2022/06/15 06:25:43;;;;;;;8.82;2.30;;;;;;;;;;5021629;28;20547;-82
2022/06/15 06:28:31;;;;;;;6.05;3.20;;;;;;;;;;5023690;28;20032;-82
2022/06/15 06:30:57;;;;;;;5.72;2.03;;;;;;;;;;5024774;28;20033;-81
2022/06/15 06:33:26;;;;;;;6.35;3.05;;;;;;;;;;5023333;28;20032;-82
2022/06/15 06:35:54;;;;;;;4.75;2.83;;;;;;;;;;5024451;28;20032;-82
2022/06/15 06:38:21;;;;;;;5.78;2.40;;;;;;;;;;5024147;28;20032;-83
2022/06/15 06:40:49;;;;;;;6.28;2.33;;;;;;;;;;5040964;28;20032;-84
2022/06/15 06:43:15;;;;;;;6.45;2.50;;;;;;;;;;5003007;28;20085;-83
2022/06/15 06:45:42;;;;;;;9.68;2.90;;;;;;;;;;5010384;28;20091;-83
2022/06/15 06:48:08;;;;;;;6.85;2.75;;;;;;;;;;5007714;28;20123;-83
2022/06/15 06:50:35;;;;;;;9.93;3.08;;;;;;;;;;5023747;28;20147;-83
2022/06/15 06:53:01;;;;;;;7.30;2.90;;;;;;;;;;5007749;28;20028;-83
2022/06/15 06:55:28;;;;;;;9.80;3.10;;;;;;;;;;5023162;28;20036;-83
2022/06/15 06:57:57;;;;;;;7.82;2.92;;;;;;;;;;5023448;28;20033;-83
2022/06/15 07:00:22;;;;;;;8.27;2.53;;;;;;;;;;5023573;28;20033;-83
2022/06/15 07:02:48;;;;;;;6.97;3.03;;;;;;;;;;5023728;28;20054;-82
2022/06/15 07:05:13;;;;;;;7.57;3.80;;;;;;;;;;5023114;28;20139;-82
2022/06/15 07:07:39;;;;;;;6.28;2.45;;;;;;;;;;5007414;28;20033;-83
2022/06/15 07:10:06;;;;;;;6.03;2.78;;;;;;;;;;5023197;28;20052;-83
2022/06/15 07:12:33;;;;;;;8.30;2.60;;;;;;;;;;5023592;28;20036;-83
2022/06/15 07:14:59;;;;;;;3.78;2.30;;;;;;;;;;5023214;28;20044;-82
2022/06/15 07:17:25;;;;;;;6.38;2.97;;;;;;;;;;5023469;28;20094;-83
2022/06/15 07:19:50;;;;;;;4.78;2.25;;;;;;;;;;5003278;28;20028;-83
2022/06/15 07:22:16;;;;;;;7.25;2.65;;;;;;;;;;5003294;28;20116;-83
2022/06/15 07:24:41;;;;;;;5.55;2.38;;;;;;;;;;5019440;28;20029;-83
2022/06/15 07:27:07;;;;;;;7.07;2.60;;;;;;;;;;5003419;28;20119;-84
2022/06/15 07:29:32;;;;;;;8.63;2.35;;;;;;;;;;5019508;28;20056;-84
2022/06/15 07:31:58;;;;;;;6.00;3.10;;;;;;;;;;5036577;28;20041;-84
2022/06/15 07:34:23;;;;;;;5.20;2.75;;;;;;;;;;5035773;28;20033;-83
2022/06/15 07:36:49;;;;;;;4.53;2.58;;;;;;;;;;5018864;28;20045;-84
2022/06/15 07:39:16;;;;;;;6.10;2.50;;;;;;;;;;5018948;28;20036;-83
2022/06/15 07:41:41;;;;;;;4.15;2.22;;;;;;;;;;5019438;28;20083;-84
2022/06/15 07:44:08;;;;;;;6.35;2.40;;;;;;;;;;5019312;28;20025;-84
2022/06/15 07:46:33;;;;;;;6.78;2.67;;;;;;;;;;5003092;28;20040;-84
2022/06/15 07:51:47;;;;;;;5.03;2.53;;;;;;;;;;5024493;28;20033;-84
2022/06/15 07:54:15;;;;;;;6.28;2.58;;;;;;;;;;5002800;28;20036;-84
2022/06/15 07:56:40;;;;;;;5.97;2.38;;;;;;;;;;5002526;28;20041;-83
2022/06/15 07:59:06;;;;;;;5.15;2.15;;;;;;;;;;5002906;28;20033;-84
2022/06/15 08:01:33;;;;;;;5.65;2.70;;;;;;;;;;5002688;28;20067;-84
2022/06/15 08:04:01;;;;;;;5.13;1.88;;;;;;;;;;5018984;28;20032;-84
2022/06/15 08:06:28;;;;;;;7.22;2.83;;;;;;;;;;5019208;28;20040;-84
2022/06/15 08:08:58;;;;;;;6.32;2.38;;;;;;;;;;5002582;28;20577;-84
2022/06/15 08:11:23;;;;;;;4.57;2.40;;;;;;;;;;4986332;28;20805;-84
2022/06/15 08:13:50;;;;;;;11.05;2.83;;;;;;;;;;5018749;28;20068;-84
2022/06/15 08:16:16;;;;;;;7.90;1.98;;;;;;;;;;5018803;28;20518;-83
2022/06/15 08:18:46;;;;;;;6.43;1.95;;;;;;;;;;5002579;28;20407;-85
2022/06/15 08:21:19;;;;;;;6.88;2.55;;;;;;;;;;5022256;28;20477;-83
2022/06/15 08:23:45;;;;;;;;;;;;;;;;;;5022466;28;20028;-83
2022/06/15 08:26:13;;;;;;;4.38;1.88;;;;;;;;;;5037961;28;19920;-83
2022/06/15 08:28:40;;;;;;;4.38;2.03;;;;;;;;;;5021681;28;20126;-83
2022/06/15 08:31:05;;;;;;;4.05;1.80;;;;;;;;;;5005791;28;20429;-83
2022/06/15 08:33:31;;;;;;;5.88;2.03;;;;;;;;;;5021956;28;20039;-82
2022/06/15 08:35:56;;;;;;;5.70;2.08;;;;;;;;;;5021769;28;20040;-83
2022/06/15 08:38:23;;;;;;;7.25;1.95;;;;;;;;;;5005132;28;20043;-82
2022/06/15 08:40:59;;;;;;;3.92;1.77;;;;;;;;;;5021704;28;20051;-83
2022/06/15 08:43:55;;;;;;;6.80;2.00;;;;;;;;;;5021912;28;20029;-83
2022/06/15 08:46:32;;;;;;;6.18;2.58;;;;;;;;;;5038319;28;20398;-82
2022/06/15 08:49:08;;;;;;;5.10;1.80;;;;;;;;;;5037557;28;20089;-81
2022/06/15 08:51:38;;;;;;;3.75;1.52;;;;;;;;;;5021695;28;20036;-81
2022/06/15 08:54:10;;;;;;;4.80;1.67;;;;;;;;;;5021722;28;20094;-82
2022/06/15 08:56:44;;;;;;;7.15;2.60;;;;;;;;;;5036158;28;20514;-81
2022/06/15 08:59:17;;;;;;;5.97;2.20;;;;;;;;;;5021470;28;20445;-81
2022/06/15 09:02:01;;;;;;;8.30;2.05;;;;;;;;;;5030673;28;20058;-83
2022/06/15 09:04:46;;;;;;;3.47;1.90;;;;;;;;;;5021756;28;20043;-82
2022/06/15 09:07:46;;;;;;;4.10;1.77;;;;;;;;;;5005626;28;20032;-81
2022/06/15 09:10:31;;;;;;;4.10;1.70;;;;;;;;;;5034781;28;20060;-82
2022/06/15 09:13:22;;;;;;;5.00;1.80;;;;;;;;;;5056380;28;20085;-81
2022/06/15 09:15:51;;;;;;;5.63;1.77;;;;;;;;;;5069809;28;20036;-81
2022/06/15 09:18:25;;;;;;;8.77;2.20;;;;;;;;;;5053729;28;20032;-81
2022/06/15 09:20:53;;;;;;;6.47;1.88;;;;;;;;;;5054002;28;20033;-81
2022/06/15 09:23:31;;;;;;;4.53;1.85;;;;;;;;;;5037320;28;20115;-83
2022/06/15 09:26:03;;;;;;;4.50;1.75;;;;;;;;;;5020755;28;20068;-82
2022/06/15 09:28:32;;;;;;;4.63;1.93;;;;;;;;;;5021057;28;20545;-83
2022/06/15 09:31:05;;;;;;;8.13;2.00;;;;;;;;;;5021081;28;20267;-81
2022/06/15 09:33:35;;;;;;;5.68;2.00;;;;;;;;;;5053819;28;20123;-82
2022/06/15 09:36:08;;;;;;;6.65;2.10;;;;;;;;;;5020906;28;20398;-82
2022/06/15 09:38:33;;;;;;;5.30;2.35;;;;;;;;;;5020911;28;20500;-81
2022/06/15 09:41:20;;;;;;;4.90;1.67;;;;;;;;;;5036927;28;20032;-82
2022/06/15 09:43:59;;;;;;;6.13;1.77;;;;;;;;;;4999215;28;20041;-83
2022/06/15 09:46:43;;;;;;;5.90;1.95;;;;;;;;;;5047952;28;20032;-81
2022/06/15 09:49:35;;;;;;;5.53;1.92;;;;;;;;;;5002757;28;20044;-82
2022/06/15 09:52:15;;;;;;;5.20;1.80;;;;;;;;;;5018704;28;20036;-82
2022/06/15 09:54:44;;;;;;;6.18;1.65;;;;;;;;;;5019232;28;20075;-82
2022/06/15 09:57:09;;;;;;;4.93;2.13;;;;;;;;;;5052842;28;20518;-81
2022/06/15 09:59:35;;;;;;;5.35;1.67;;;;;;;;;;5021749;28;20043;-83
2022/06/15 10:02:03;;;;;;;6.18;2.03;;;;;;;;;;5026752;28;20024;-82
2022/06/15 10:04:30;;;;;;;4.70;1.77;;;;;;;;;;5043007;28;20028;-81
2022/06/15 10:07:01;;;;;;;5.00;1.77;;;;;;;;;;5009867;28;20423;-81
2022/06/15 10:09:30;;;;;;;7.35;2.17;;;;;;;;;;5025671;28;20036;-83
2022/06/15 10:12:55;;;;;;;5.90;2.00;;;;;;;;;;5027106;28;20082;-82
2022/06/15 10:14:50;;;;;;;4.75;1.70;;;;;;;;;;5031253;28;20487;-82
2022/06/15 10:17:32;;;;;;;5.82;1.90;;;;;;;;;;5026811;28;20033;-83
2022/06/15 10:19:58;;;;;;;;;;;;;;;;;;5060027;28;20107;-84
2022/06/15 10:22:30;;;;;;;5.15;2.30;;;;;;;;;;5026637;28;19916;-84
2022/06/15 10:24:56;;;;;;;5.45;2.58;;;;;;;;;;5010256;28;20032;-81
2022/06/15 10:27:28;;;;;;;4.60;1.75;;;;;;;;;;5026528;28;20417;-81
2022/06/15 10:30:06;;;;;;;6.68;2.50;;;;;;;;;;5043398;28;20056;-84
2022/06/15 10:32:32;;;;;;;5.03;1.70;;;;;;;;;;5044491;28;20086;-82
2022/06/15 10:35:13;;;;;;;5.05;2.00;;;;;;;;;;5026633;28;20072;-82
2022/06/15 10:37:45;;;;;;;5.88;1.92;;;;;;;;;;5044047;28;20036;-82
2022/06/15 10:40:18;;;;;;;6.28;2.38;;;;;;;;;;5043280;28;20090;-82
2022/06/15 10:42:46;;;;;;;5.82;2.15;;;;;;;;;;5026903;28;20123;-86
2022/06/15 10:45:36;;;;;;;5.15;2.33;;;;;;;;;;5027405;28;20040;-86
2022/06/15 10:48:06;;;;;;;5.55;1.80;;;;;;;;;;5007835;28;20033;-86
2022/06/15 10:50:46;;;;;;;4.18;1.73;;;;;;;;;;4991038;28;20028;-84
2022/06/15 10:53:41;;;;;;;4.53;1.83;;;;;;;;;;5023176;28;20037;-84
2022/06/15 11:02:08;;;;;;;6.63;1.80;;;;;;;;;;5045920;28;20035;-85
2022/06/15 11:05:03;;;;;;;4.50;1.80;;;;;;;;;;5030248;28;20048;-85
2022/06/15 11:07:32;;;;;;;4.65;1.70;;;;;;;;;;5051426;28;20502;-85
2022/06/15 11:09:58;;;;;;;4.82;2.25;;;;;;;;;;5043651;28;20056;-85
2022/06/15 11:12:30;;;;;;;2.97;1.83;;;;;;;;;;5056769;28;20051;-86
2022/06/15 11:15:00;;;;;;;4.93;1.77;;;;;;;;;;5038787;28;20506;-85
2022/06/15 11:20:41;;;;;;;5.13;2.08;;;;;;;;;;5042964;28;20058;-86
2022/06/15 11:23:43;;;;;;;5.25;2.05;;;;;;;;;;5026212;28;20048;-86
2022/06/15 11:26:52;;;;;;;2.60;1.40;;;;;;;;;;5039452;28;20040;-85
2022/06/15 11:29:48;;;;;;;3.95;1.90;;;;;;;;;;5039655;28;20037;-85
2022/06/15 11:32:46;;;;;;;4.65;2.00;;;;;;;;;;5023457;28;20032;-85
2022/06/15 11:35:11;;;;;;;3.30;1.45;;;;;;;;;;5056434;28;20037;-86
2022/06/15 11:37:51;;;;;;;3.92;1.58;;;;;;;;;;5039739;28;20048;-86
2022/06/15 11:40:40;;;;;;;4.60;1.48;;;;;;;;;;5039491;28;20036;-85
2022/06/15 11:43:16;;;;;;;4.57;1.50;;;;;;;;;;5019260;28;20136;-85
2022/06/15 11:46:12;;;;;;;3.00;1.35;;;;;;;;;;5039220;28;20044;-85
2022/06/15 11:49:02;;;;;;;2.97;1.52;;;;;;;;;;5039529;28;20067;-85
2022/06/15 11:51:39;;;;;;;4.45;2.15;;;;;;;;;;5056038;28;20078;-85
2022/06/15 11:54:30;;;;;;;3.45;1.77;;;;;;;;;;5039076;28;20410;-85
2022/06/15 11:57:14;;;;;;;2.47;1.23;;;;;;;;;;5038294;28;20099;-85
2022/06/15 11:59:48;;;;;;;3.97;1.88;;;;;;;;;;5035868;28;20079;-86
2022/06/15 12:02:41;;;;;;;5.00;1.60;;;;;;;;;;5035889;28;20037;-85
2022/06/15 12:05:40;;;;;;;3.88;1.33;;;;;;;;;;5019267;28;20029;-86
2022/06/15 12:08:06;;;;;;;3.35;1.70;;;;;;;;;;4994910;28;20422;-86
2022/06/15 12:10:44;;;;;;;3.05;1.63;;;;;;;;;;5035736;28;20119;-86
2022/06/15 12:13:15;;;;;;;3.45;1.27;;;;;;;;;;5003616;28;20044;-86
2022/06/15 12:16:18;;;;;;;3.45;1.42;;;;;;;;;;5019234;28;20502;-86
2022/06/15 12:19:09;;;;;;;5.18;1.38;;;;;;;;;;4970466;28;20515;-86
2022/06/15 12:21:40;;;;;;;2.65;1.27;;;;;;;;;;5036552;28;20032;-86
2022/06/15 12:24:29;;;;;;;2.58;1.35;;;;;;;;;;5036845;28;20493;-86
2022/06/15 12:27:37;;;;;;;2.85;1.35;;;;;;;;;;5075422;28;20063;-86
2022/06/15 12:30:26;;;;;;;3.63;1.52;;;;;;;;;;5010849;28;20044;-86
2022/06/15 12:33:03;;;;;;;2.90;1.50;;;;;;;;;;5043417;28;20035;-86
2022/06/15 12:35:54;;;;;;;3.70;1.67;;;;;;;;;;5074954;28;20481;-85
2022/06/15 12:38:21;;;;;;;2.20;1.25;;;;;;;;;;5002550;28;20052;-86
2022/06/15 12:42:09;;;;;;;3.72;1.45;;;;;;;;;;5035397;28;20483;-86
2022/06/15 12:43:55;;;;;;;3.15;1.23;;;;;;;;;;5040566;28;20037;-86
2022/06/15 12:46:20;;;;;;;3.58;1.50;;;;;;;;;;5019020;28;20392;-85
2022/06/15 12:49:23;;;;;;;2.92;1.33;;;;;;;;;;5035223;28;20079;-86
2022/06/15 12:51:56;;;;;;;3.15;1.55;;;;;;;;;;5034776;28;20032;-86
2022/06/15 12:55:00;;;;;;;2.08;1.20;;;;;;;;;;5034684;28;20124;-86
2022/06/15 12:57:43;;;;;;;3.33;1.35;;;;;;;;;;5034513;28;20064;-86
2022/06/15 13:00:17;;;;;;;2.47;1.30;;;;;;;;;;5018526;28;20090;-86
2022/06/15 13:03:05;;;;;;;3.70;1.40;;;;;;;;;;5018917;28;20033;-86
2022/06/15 13:05:32;;;;;;;3.28;1.30;;;;;;;;;;4984069;28;20740;-86
2022/06/15 13:08:25;;;;;;;2.97;1.35;;;;;;;;;;5018625;28;20033;-86
2022/06/15 13:10:53;;;;;;;2.42;1.10;;;;;;;;;;5034507;28;20032;-86
2022/06/15 13:13:30;;;;;;;3.28;1.25;;;;;;;;;;5051095;28;20120;-86
2022/06/15 13:16:08;;;;;;;3.83;1.30;;;;;;;;;;4995429;28;20025;-86
2022/06/15 13:18:47;;;;;;;5.85;1.65;;;;;;;;;;5020149;28;20159;-86
2022/06/15 13:21:14;;;;;;;2.97;1.35;;;;;;;;;;5045831;28;20029;-85
2022/06/15 13:24:06;;;;;;;3.42;1.67;;;;;;;;;;5049377;28;20497;-85
2022/06/15 13:26:31;;;;;;;1.95;1.10;;;;;;;;;;5074133;28;20111;-86
2022/06/15 13:29:06;;;;;;;3.10;1.73;;;;;;;;;;5073870;28;20127;-85
2022/06/15 13:31:43;;;;;;;3.25;1.30;;;;;;;;;;5055087;28;20087;-86
2022/06/15 13:34:13;;;;;;;5.30;2.70;;;;;;;;;;5033755;28;20064;-86
2022/06/15 13:36:39;;;;;;;5.30;2.22;;;;;;;;;;5032609;28;20040;-85
2022/06/15 13:39:25;;;;;;;5.13;1.70;;;;;;;;;;5028462;28;20116;-86
2022/06/15 13:42:38;;;;;;;6.00;2.65;;;;;;;;;;5030523;28;20032;-86
2022/06/15 13:45:28;;;;;;;5.93;2.13;;;;;;;;;;5024500;28;20045;-86
2022/06/15 13:48:06;;;;;;;5.93;1.92;;;;;;;;;;5033455;28;20156;-87
2022/06/15 13:50:35;;;;;;;4.93;1.95;;;;;;;;;;5004796;28;20040;-87
2022/06/15 13:53:01;;;;;;;10.07;2.40;;;;;;;;;;5037624;28;20079;-87
2022/06/15 13:55:48;;;;;;;3.47;1.70;;;;;;;;;;5008348;28;20487;-86
2022/06/15 13:58:45;;;;;;;3.13;1.55;;;;;;;;;;5020793;28;20115;-87
2022/06/15 14:01:12;;;;;;;5.07;2.05;;;;;;;;;;5021026;28;20032;-85
2022/06/15 14:04:16;;;;;;;3.13;1.67;;;;;;;;;;5020603;28;20036;-86
2022/06/15 14:07:23;;;;;;;4.75;2.17;;;;;;;;;;5031146;28;20040;-86
2022/06/15 14:10:00;;;;;;;4.18;1.73;;;;;;;;;;5009269;28;20048;-87
2022/06/15 14:12:39;;;;;;;5.00;2.30;;;;;;;;;;5021161;28;20512;-86
2022/06/15 14:15:33;;;;;;;5.90;1.73;;;;;;;;;;5054080;28;20032;-86
2022/06/15 14:18:02;;;;;;;4.05;1.65;;;;;;;;;;5036982;28;20429;-86
2022/06/15 14:20:38;;;;;;;3.35;1.70;;;;;;;;;;5037527;28;20107;-86
2022/06/15 14:23:05;;;;;;;6.10;2.05;;;;;;;;;;5025910;28;20040;-85
2022/06/15 14:25:47;;;;;;;2.60;1.67;;;;;;;;;;5043856;28;20043;-85
2022/06/15 14:28:15;;;;;;;3.83;1.92;;;;;;;;;;5005886;28;20131;-86
2022/06/15 14:30:41;;;;;;;3.33;1.60;;;;;;;;;;5004102;28;20035;-84
2022/06/15 14:33:21;;;;;;;3.05;1.60;;;;;;;;;;5036948;28;20433;-86
2022/06/15 14:36:19;;;;;;;4.32;1.83;;;;;;;;;;5005482;28;20035;-86
2022/06/15 14:39:00;;;;;;;5.43;1.73;;;;;;;;;;5025146;28;20132;-85
2022/06/15 14:41:35;;;;;;;2.97;1.38;;;;;;;;;;5004284;28;20536;-87
2022/06/15 14:44:02;;;;;;;4.13;1.60;;;;;;;;;;5020509;28;20428;-83
2022/06/15 14:46:42;;;;;;;4.78;1.50;;;;;;;;;;5022590;28;20111;-86
2022/06/15 14:49:08;;;;;;;4.38;1.50;;;;;;;;;;5021104;28;20055;-86
2022/06/15 14:51:33;;;;;;;4.55;1.73;;;;;;;;;;5020921;28;20414;-86
2022/06/15 14:54:01;;;;;;;5.20;2.03;;;;;;;;;;5020468;28;20045;-84
2022/06/15 14:56:30;;;;;;;4.32;2.47;;;;;;;;;;5053723;28;20035;-86
2022/06/15 14:59:01;;;;;;;7.25;2.22;;;;;;;;;;5041109;28;20089;-86
2022/06/15 15:01:27;;;;;;;2.95;1.52;;;;;;;;;;5024266;28;20039;-86
2022/06/15 15:03:52;;;;;;;3.47;1.10;;;;;;;;;;5024133;28;20040;-86
2022/06/15 15:06:19;;;;;;;2.67;1.00;;;;;;;;;;5023888;28;20028;-86
2022/06/15 15:08:48;;;;;;;2.95;1.60;;;;;;;;;;5039780;28;20036;-85
2022/06/15 15:11:28;;;;;;;4.32;1.55;;;;;;;;;;5024135;28;20025;-86
2022/06/15 15:14:00;;;;;;;2.65;1.45;;;;;;;;;;5023988;28;20125;-86
2022/06/15 15:16:40;;;;;;;3.45;1.70;;;;;;;;;;5024028;28;20024;-86
2022/06/15 15:19:08;;;;;;;3.65;1.17;;;;;;;;;;5040583;28;20043;-86
2022/06/15 15:21:42;;;;;;;4.55;1.25;;;;;;;;;;5023794;28;20040;-86
2022/06/15 15:24:13;;;;;;;4.13;1.42;;;;;;;;;;5038503;28;20036;-86
2022/06/15 15:27:02;;;;;;;3.13;1.15;;;;;;;;;;5056405;28;20076;-86
2022/06/15 15:35:18;;;;;;;4.03;1.30;;;;;;;;;;5056412;28;20039;-86
2022/06/15 15:37:46;;;;;;;3.30;1.17;;;;;;;;;;5039568;28;20608;-86